Bienvenue à Aimargues au coeur de la petite Camargue






Pas de vigilance météorologique particulière.    Il n'y a aucun avertissement

Rapports METAR proximité

   
EBBR - Brussels International Airport, Belgium
Distance: O 14 km
Mise à jour: 15-12-2018 19:50
Claires  
Claires  
   Vent: SSE 24.1 km/h
Vent: SSE 24.1 km/h
Température: 0°C
éolien: -6°C
Point de rosée: -5°C
Humidité: 69%
Baromètre: 1014 hPa
visibilité: Plus 10 km
Détails des nuages: Claires
EBBR 151850Z 15013KT CAVOK 00/M05 Q1014 TEMPO 3500 -SN -FZRA BKN008
EBBE - Beauvechain (Bevekom), Belgium
Distance: SSE 17 km
Mise à jour: 15-12-2018 19:55
Nuageux  
Nuageux  
   Vent: SSE 20.4 km/h
Vent: SSE 20.4 km/h
Température: 0°C
éolien: -5°C
Point de rosée: -6°C
Humidité: 64%
Baromètre: 1014 hPa
Nuages: Nuageux
visibilité: Plus 10 km
Détails des nuages: Peu de nuages 9500 ft,
Nuageux 12000 ft
EBBE 151855Z AUTO 15011KT 9999 FEW095/// BKN120/// M00/M06 Q1014 BLU
EBDT - Schaffen, Belgium
Distance: ENE 29 km
Mise à jour: 15-12-2018 19:55
Nuageux  
Nuageux  
   Vent: SE 14.8 km/h
Vent: SE 14.8 km/h
Température: -1°C
éolien: -6°C
Point de rosée: -5°C
Humidité: 75%
Baromètre: 1016 hPa
Nuages: Nuageux
visibilité: Plus 10 km
Détails des nuages: Nuageux 15000 ft,
Nuageux 22000 ft
EBDT 151855Z AUTO 14008KT 9999 BKN150/// BKN220/// M01/M05 Q1016 BLU
EBAW - Antwerp/Deurne, Belgium
Distance: NNO 38 km
Mise à jour: 15-12-2018 19:50
Claires  
Claires  
   Vent: SE 22.2 km/h
Vent: SE 22.2 km/h
Température: 0°C
éolien: -6°C
Point de rosée: -4°C
Humidité: 75%
Baromètre: 1014 hPa
visibilité: Plus 10 km
Détails des nuages: Claires
EBAW 151850Z 14012KT CAVOK 00/M04 Q1014 TEMPO -FZRA -SN
EBCI - Charleroi/Gosselies, Belgium
Distance: SSO 51 km
Mise à jour: 15-12-2018 19:50
Light Freezing, Pluie, Partiellement nuageux  
Light Freezing, Pluie, Partiellement nuageux  
   Vent: SSE 27.8 km/h
Vent: SSE 27.8 km/h
Température: 0°C
éolien: -6°C
Point de rosée: -6°C
Humidité: 64%
Baromètre: 1014 hPa
Nuages: Partiellement nuageux
visibilité: Plus 10 km
Détails des nuages: Partiellement nuageux
EBCI 151850Z 15015KT 9999 -FZRA NSC M00/M06 Q1014 TEMPO 17015G28KT 3000 -SN -FZRA
EBLG - Bierset/Liege, Belgium
Distance: ESE 60 km
Mise à jour: 15-12-2018 19:50
Claires  
Claires  
   Vent: SSE 25.9 km/h
Vent: SSE 25.9 km/h
Température: -1°C
éolien: -7°C
Point de rosée: -6°C
Humidité: 69%
Baromètre: 1015 hPa
visibilité: Plus 10 km
Détails des nuages: Claires
EBLG 151850Z 16014KT CAVOK M01/M06 Q1015 NOSIG

Script développé par  Saratoga-weather.org Adapté pour le modèle par  Weerstation Leuven

Vous trouverez notre info météo Également à:

Weather Underground

AWEKAS

Citizen Weather Observer Program (CWOP)